createdAt,value
2019-03-12T00:00:44.251Z,97.25
2019-03-12T00:01:44.245Z,96.73
2019-03-12T00:02:44.240Z,97.04
2019-03-12T00:03:44.243Z,96.94
2019-03-12T00:04:44.214Z,97.04
2019-03-12T00:05:44.202Z,97.25
2019-03-12T00:06:44.193Z,96.94
2019-03-12T00:07:44.176Z,97.35
2019-03-12T00:08:44.181Z,97.56
2019-03-12T00:09:44.165Z,97.52
2019-03-12T00:10:44.146Z,97.31
2019-03-12T00:11:44.143Z,97.04
2019-03-12T00:12:44.126Z,96.62
2019-03-12T00:13:44.123Z,96.89
2019-03-12T00:14:44.123Z,97.00
2019-03-12T00:15:44.096Z,97.04
2019-03-12T00:16:44.086Z,97.04
2019-03-12T00:17:44.139Z,96.37
2019-03-12T00:18:44.067Z,96.58
2019-03-12T00:19:44.062Z,96.37
2019-03-12T00:20:44.087Z,96.37
2019-03-12T00:21:44.057Z,96.42
2019-03-12T00:22:44.030Z,96.37
2019-03-12T00:23:44.002Z,96.21
2019-03-12T00:24:44.051Z,95.54
2019-03-12T00:25:43.986Z,95.85
2019-03-12T00:26:43.977Z,96.16
2019-03-12T00:27:43.970Z,96.06
2019-03-12T00:28:43.956Z,95.85
2019-03-12T00:29:43.937Z,96.00
2019-03-12T00:30:43.944Z,95.85
2019-03-12T00:31:43.921Z,95.95
2019-03-12T00:32:43.915Z,95.95
2019-03-12T00:33:43.894Z,95.79
2019-03-12T00:34:43.884Z,95.85
2019-03-12T00:35:43.882Z,95.89
2019-03-12T00:36:43.861Z,95.75
2019-03-12T00:37:43.869Z,95.75
2019-03-12T00:38:43.847Z,95.95
2019-03-12T00:39:43.830Z,95.23
2019-03-12T00:40:43.843Z,94.92
2019-03-12T00:41:43.811Z,94.96
2019-03-12T00:42:43.799Z,95.37
2019-03-12T00:43:43.794Z,94.33
2019-03-12T00:44:43.802Z,94.58
2019-03-12T00:45:43.788Z,94.58
2019-03-12T00:46:43.757Z,95.10
2019-03-12T00:47:43.748Z,95.00
2019-03-12T00:48:43.736Z,94.73
2019-03-12T00:49:43.722Z,94.90
2019-03-12T00:50:43.722Z,95.04
2019-03-12T00:51:43.710Z,94.94
2019-03-12T00:52:43.697Z,95.15
2019-03-12T00:53:43.681Z,96.09
2019-03-12T00:54:43.679Z,96.19
2019-03-12T00:55:43.661Z,95.67
2019-03-12T00:56:43.753Z,95.36
2019-03-12T00:57:43.636Z,94.94
2019-03-12T00:58:43.631Z,95.04
2019-03-12T00:59:43.622Z,95.25
2019-03-12T01:00:43.610Z,95.67
2019-03-12T01:01:43.610Z,96.09
2019-03-12T01:02:43.588Z,96.19
2019-03-12T01:03:43.578Z,96.09
2019-03-12T01:04:43.566Z,96.09
2019-03-12T01:05:43.557Z,95.56
2019-03-12T01:06:43.562Z,95.88
2019-03-12T01:07:43.528Z,96.30
2019-03-12T01:08:43.518Z,95.98
2019-03-12T01:09:43.506Z,96.04
2019-03-12T01:10:43.499Z,95.10
2019-03-12T01:11:43.526Z,95.15
2019-03-12T01:12:43.488Z,95.04
2019-03-12T01:13:43.497Z,95.00
2019-03-12T01:14:43.453Z,95.46
2019-03-12T01:15:43.445Z,95.04
2019-03-12T01:16:43.433Z,94.58
2019-03-12T01:17:43.434Z,94.84
2019-03-12T01:18:43.420Z,95.00
2019-03-12T01:19:43.400Z,94.48
2019-03-12T01:20:43.395Z,94.48
2019-03-12T01:21:43.378Z,94.90
2019-03-12T01:22:43.379Z,94.58
2019-03-12T01:23:43.376Z,94.69
2019-03-12T01:24:43.353Z,95.00
2019-03-12T01:25:43.336Z,95.00
2019-03-12T01:26:43.329Z,95.10
2019-03-12T01:27:43.317Z,94.64
2019-03-12T01:28:43.344Z,94.54
2019-03-12T01:29:43.295Z,94.85
2019-03-12T01:30:43.291Z,95.10
2019-03-12T01:31:43.272Z,94.75
2019-03-12T01:32:43.269Z,95.10
2019-03-12T01:33:43.262Z,95.17
2019-03-12T01:34:43.259Z,94.54
2019-03-12T01:35:43.237Z,95.06
2019-03-12T01:36:43.253Z,94.43
2019-03-12T01:37:43.217Z,94.60
2019-03-12T01:38:43.210Z,94.70
2019-03-12T01:39:43.188Z,94.92
2019-03-12T01:40:43.178Z,94.49
2019-03-12T01:41:43.167Z,94.29
2019-03-12T01:42:43.161Z,94.64
2019-03-12T01:43:43.179Z,94.39
2019-03-12T01:44:43.152Z,94.60
2019-03-12T01:45:43.131Z,94.60
2019-03-12T01:46:43.118Z,94.60
2019-03-12T01:47:43.128Z,94.64
2019-03-12T01:48:43.092Z,94.49
2019-03-12T01:49:43.114Z,94.18
2019-03-12T01:50:43.081Z,94.18
2019-03-12T01:51:43.069Z,93.77
2019-03-12T01:52:43.049Z,93.14
2019-03-12T01:53:43.044Z,93.20
2019-03-12T01:54:43.029Z,93.35
2019-03-12T01:55:43.032Z,93.46
2019-03-12T01:56:43.006Z,93.35
2019-03-12T01:57:43.004Z,93.14
2019-03-12T01:58:42.988Z,93.14
2019-03-12T01:59:43.006Z,93.46
2019-03-12T02:00:43.001Z,93.14
2019-03-12T02:01:42.956Z,93.24
2019-03-12T02:02:42.946Z,93.35
2019-03-12T02:03:42.938Z,92.83
2019-03-12T02:04:42.927Z,92.41
2019-03-12T02:05:42.913Z,92.83
2019-03-12T02:06:42.908Z,92.93
2019-03-12T02:07:42.904Z,93.04
2019-03-12T02:08:42.875Z,93.04
2019-03-12T02:09:42.869Z,92.52
2019-03-12T02:10:42.858Z,92.83
2019-03-12T02:11:42.846Z,92.52
2019-03-12T02:12:42.854Z,92.31
2019-03-12T02:13:42.828Z,92.41
2019-03-12T02:14:42.811Z,91.96
2019-03-12T02:15:42.809Z,92.06
2019-03-12T02:16:42.793Z,91.53
2019-03-12T02:17:42.816Z,91.37
2019-03-12T02:18:42.768Z,91.53
2019-03-12T02:19:42.766Z,91.75
2019-03-12T02:20:43.610Z,91.96
2019-03-12T02:21:42.745Z,92.41
2019-03-12T02:22:42.725Z,92.16
2019-03-12T02:23:42.732Z,92.16
2019-03-12T02:24:52.017Z,92.31
2019-03-12T02:25:43.695Z,92.47
2019-03-12T02:26:42.690Z,92.52
2019-03-12T02:27:42.676Z,92.41
2019-03-12T02:28:42.708Z,92.31
2019-03-12T02:29:42.648Z,91.85
2019-03-12T02:30:42.638Z,91.85
2019-03-12T02:31:42.627Z,91.78
2019-03-12T02:32:44.516Z,92.37
2019-03-12T02:33:42.608Z,91.75
2019-03-12T02:34:42.603Z,92.58
2019-03-12T02:35:42.608Z,91.96
2019-03-12T02:36:42.573Z,92.06
2019-03-12T02:37:42.561Z,91.85
2019-03-12T02:38:42.551Z,92.37
2019-03-12T02:39:42.555Z,92.58
2019-03-12T02:40:42.538Z,91.64
2019-03-12T02:41:42.549Z,91.96
2019-03-12T02:42:42.512Z,91.64
2019-03-12T02:43:42.497Z,91.96
2019-03-12T02:44:42.490Z,91.96
2019-03-12T02:45:42.525Z,91.64
2019-03-12T02:46:42.469Z,91.85
2019-03-12T02:47:42.455Z,91.53
2019-03-12T02:48:42.445Z,91.08
2019-03-12T02:49:42.429Z,90.77
2019-03-12T02:50:42.422Z,91.02
2019-03-12T02:51:42.421Z,91.08
2019-03-12T02:52:42.401Z,91.39
2019-03-12T02:53:42.388Z,91.33
2019-03-12T02:54:42.373Z,91.43
2019-03-12T02:55:42.368Z,91.12
2019-03-12T02:56:42.387Z,91.28
2019-03-12T02:57:42.345Z,91.53
2019-03-12T02:58:42.341Z,91.33
2019-03-12T02:59:42.319Z,91.75
2019-03-12T03:00:42.310Z,91.53
2019-03-12T03:01:42.334Z,91.53
2019-03-12T03:02:42.305Z,91.43
2019-03-12T03:03:42.275Z,92.06
2019-03-12T03:04:42.264Z,92.16
2019-03-12T03:05:42.253Z,91.71
2019-03-12T03:06:42.245Z,91.85
2019-03-12T03:07:42.276Z,92.12
2019-03-12T03:08:42.227Z,91.75
2019-03-12T03:09:42.223Z,91.91
2019-03-12T03:10:42.196Z,91.64
2019-03-12T03:11:42.205Z,92.06
2019-03-12T03:12:42.182Z,92.06
2019-03-12T03:13:42.166Z,91.96
2019-03-12T03:14:42.157Z,91.81
2019-03-12T03:15:42.141Z,91.71
2019-03-12T03:16:42.135Z,91.71
2019-03-12T03:17:42.124Z,91.50
2019-03-12T03:18:42.121Z,91.91
2019-03-12T03:19:42.101Z,92.02
2019-03-12T03:20:42.087Z,91.28
2019-03-12T03:21:42.124Z,91.39
2019-03-12T03:22:42.078Z,91.50
2019-03-12T03:23:42.055Z,91.60
2019-03-12T03:24:42.046Z,91.91
2019-03-12T03:25:42.040Z,91.81
2019-03-12T03:26:42.027Z,91.81
2019-03-12T03:27:42.033Z,91.91
2019-03-12T03:28:42.000Z,91.91
2019-03-12T03:29:41.996Z,91.81
2019-03-12T03:30:42.030Z,91.81
2019-03-12T03:31:41.973Z,91.39
2019-03-12T03:32:41.965Z,91.39
2019-03-12T03:33:41.947Z,90.87
2019-03-12T03:34:41.936Z,91.28
2019-03-12T03:35:41.925Z,91.28
2019-03-12T03:36:41.955Z,90.77
2019-03-12T03:37:41.913Z,91.28
2019-03-12T03:38:41.891Z,90.97
2019-03-12T03:39:41.881Z,90.97
2019-03-12T03:40:41.867Z,91.28
2019-03-12T03:41:41.864Z,91.08
2019-03-12T03:42:41.856Z,90.87
2019-03-12T03:43:41.845Z,91.18
2019-03-12T03:44:41.889Z,91.50
2019-03-12T03:45:41.812Z,91.39
2019-03-12T03:46:41.802Z,91.28
2019-03-12T03:47:41.806Z,91.81
2019-03-12T03:48:41.782Z,92.02
2019-03-12T03:49:41.765Z,91.71
2019-03-12T03:50:41.763Z,91.81
2019-03-12T03:51:41.743Z,91.28
2019-03-12T03:52:41.738Z,91.71
2019-03-12T03:53:41.731Z,91.71
2019-03-12T03:54:41.725Z,92.22
2019-03-12T03:55:41.716Z,91.91
2019-03-12T03:56:41.705Z,92.22
2019-03-12T03:57:41.680Z,91.81
2019-03-12T03:58:41.674Z,92.54
2019-03-12T03:59:41.654Z,92.02
2019-03-12T04:00:41.675Z,91.81
2019-03-12T04:01:41.632Z,92.54
2019-03-12T04:02:41.632Z,92.43
2019-03-12T04:03:41.667Z,91.60
2019-03-12T04:04:41.603Z,91.91
2019-03-12T04:05:41.596Z,92.22
2019-03-12T04:06:41.609Z,92.12
2019-03-12T04:07:41.573Z,91.71
2019-03-12T04:08:41.556Z,92.22
2019-03-12T04:09:41.561Z,92.22
2019-03-12T04:10:41.567Z,92.43
2019-03-12T04:11:41.530Z,92.54
2019-03-12T04:12:41.511Z,92.54
2019-03-12T04:13:41.504Z,92.64
2019-03-12T04:14:41.499Z,92.74
2019-03-12T04:15:41.487Z,91.91
2019-03-12T04:16:41.474Z,92.43
2019-03-12T04:17:41.456Z,92.54
2019-03-12T04:18:41.451Z,93.05
2019-03-12T04:19:41.451Z,92.54
2019-03-12T04:20:41.445Z,92.54
2019-03-12T04:21:41.464Z,92.43
2019-03-12T04:22:41.524Z,92.95
2019-03-12T04:23:41.413Z,92.54
2019-03-12T04:24:41.380Z,92.33
2019-03-12T04:25:41.373Z,92.33
2019-03-12T04:26:41.397Z,93.16
2019-03-12T04:27:41.369Z,93.05
2019-03-12T04:28:41.336Z,92.54
2019-03-12T04:29:41.333Z,92.43
2019-03-12T04:30:41.321Z,92.33
2019-03-12T04:31:41.308Z,92.33
2019-03-12T04:32:41.300Z,92.12
2019-03-12T04:33:41.280Z,92.33
2019-03-12T04:34:41.275Z,93.16
2019-03-12T04:35:41.259Z,92.22
2019-03-12T04:36:41.264Z,92.54
2019-03-12T04:37:41.240Z,92.74
2019-03-12T04:38:41.231Z,92.85
2019-03-12T04:39:41.225Z,92.54
2019-03-12T04:40:41.213Z,92.33
2019-03-12T04:41:41.195Z,92.43
2019-03-12T04:42:41.189Z,92.64
2019-03-12T04:43:41.174Z,92.33
2019-03-12T04:44:41.163Z,93.48
2019-03-12T04:45:41.153Z,93.37
2019-03-12T04:46:41.155Z,92.99
2019-03-12T04:47:41.124Z,92.95
2019-03-12T04:48:41.118Z,92.33
2019-03-12T04:49:41.103Z,93.27
2019-03-12T04:50:41.107Z,93.16
2019-03-12T04:51:41.083Z,92.54
2019-03-12T04:52:41.077Z,92.43
2019-03-12T04:53:41.058Z,92.33
2019-03-12T04:54:41.047Z,92.54
2019-03-12T04:55:41.046Z,92.33
2019-03-12T04:56:41.040Z,92.33
2019-03-12T04:57:41.015Z,92.54
2019-03-12T04:58:41.013Z,92.54
2019-03-12T04:59:41.005Z,92.54
2019-03-12T05:00:40.987Z,92.54
2019-03-12T05:01:40.981Z,92.68
2019-03-12T05:02:40.963Z,92.74
2019-03-12T05:03:40.951Z,92.43
2019-03-12T05:04:40.939Z,92.64
2019-03-12T05:05:40.932Z,92.27
2019-03-12T05:06:40.946Z,92.74
2019-03-12T05:07:40.906Z,91.39
2019-03-12T05:08:40.899Z,91.28
2019-03-12T05:09:40.883Z,90.97
2019-03-12T05:10:40.872Z,90.45
2019-03-12T05:11:40.870Z,91.08
2019-03-12T05:12:40.876Z,90.25
2019-03-12T05:13:40.851Z,88.89
2019-03-12T05:14:40.828Z,89.83
2019-03-12T05:15:40.828Z,88.89
2019-03-12T05:16:40.814Z,89.31
2019-03-12T05:17:40.818Z,88.75
2019-03-12T05:18:40.786Z,89.00
2019-03-12T05:19:41.280Z,89.00
2019-03-12T05:20:40.771Z,88.79
2019-03-12T05:21:40.752Z,89.62
2019-03-12T05:22:40.768Z,89.41
2019-03-12T05:23:40.737Z,89.41
2019-03-12T05:24:40.723Z,89.73
2019-03-12T05:25:40.707Z,90.14
2019-03-12T05:26:40.705Z,90.35
2019-03-12T05:27:40.712Z,90.35
2019-03-12T05:28:40.679Z,90.56
2019-03-12T05:29:40.670Z,90.56
2019-03-12T05:30:40.651Z,90.35
2019-03-12T05:31:40.651Z,90.45
2019-03-12T05:32:40.638Z,89.00
2019-03-12T05:33:40.644Z,88.79
2019-03-12T05:34:40.615Z,89.00
2019-03-12T05:35:40.697Z,89.00
2019-03-12T05:36:40.586Z,89.41
2019-03-12T05:37:40.575Z,88.89
2019-03-12T05:38:40.562Z,88.79
2019-03-12T05:39:40.553Z,88.37
2019-03-12T05:40:40.541Z,87.75
2019-03-12T05:41:40.546Z,88.06
2019-03-12T05:42:40.620Z,87.75
2019-03-12T05:43:40.508Z,87.85
2019-03-12T05:44:40.508Z,88.17
2019-03-12T05:45:40.549Z,87.43
2019-03-12T05:46:40.482Z,88.48
2019-03-12T05:47:40.596Z,87.33
2019-03-12T05:48:40.460Z,87.12
2019-03-12T05:49:40.448Z,87.12
2019-03-12T05:50:40.432Z,86.60
2019-03-12T05:51:40.438Z,86.81
2019-03-12T05:52:40.412Z,85.88
2019-03-12T05:53:40.405Z,86.81
2019-03-12T05:54:40.389Z,86.29
2019-03-12T05:55:40.379Z,87.08
2019-03-12T05:56:40.383Z,86.91
2019-03-12T05:57:40.355Z,87.12
2019-03-12T05:58:40.356Z,87.40
2019-03-12T05:59:40.340Z,88.27
2019-03-12T06:00:40.327Z,88.27
2019-03-12T06:01:40.355Z,87.29
2019-03-12T06:02:40.302Z,87.85
2019-03-12T06:03:40.288Z,88.02
2019-03-12T06:04:40.278Z,87.75
2019-03-12T06:05:40.272Z,87.71
2019-03-12T06:06:40.262Z,88.17
2019-03-12T06:07:40.282Z,88.06
2019-03-12T06:08:40.243Z,88.17
2019-03-12T06:09:40.221Z,88.02
2019-03-12T06:10:40.211Z,87.33
2019-03-12T06:11:40.219Z,87.81
2019-03-12T06:12:40.189Z,87.19
2019-03-12T06:13:40.193Z,86.60
2019-03-12T06:14:40.177Z,86.60
2019-03-12T06:15:40.157Z,86.29
2019-03-12T06:16:40.154Z,85.46
2019-03-12T06:17:40.134Z,85.25
2019-03-12T06:18:40.141Z,85.77
2019-03-12T06:19:43.285Z,85.46
2019-03-12T06:20:40.101Z,85.25
2019-03-12T06:21:40.114Z,85.94
2019-03-12T06:22:40.129Z,85.63
2019-03-12T06:23:40.078Z,86.04
2019-03-12T06:24:40.061Z,85.83
2019-03-12T06:25:40.053Z,85.31
2019-03-12T06:26:40.037Z,85.21
2019-03-12T06:27:40.030Z,85.21
2019-03-12T06:28:40.023Z,86.15
2019-03-12T06:29:40.008Z,85.21
2019-03-12T06:30:39.990Z,85.21
2019-03-12T06:31:39.993Z,83.99
2019-03-12T06:32:39.977Z,83.12
2019-03-12T06:33:39.968Z,82.95
2019-03-12T06:34:39.988Z,82.84
2019-03-12T06:35:39.939Z,83.20
2019-03-12T06:36:39.931Z,83.40
2019-03-12T06:37:39.921Z,84.03
2019-03-12T06:38:39.922Z,84.23
2019-03-12T06:39:42.990Z,84.55
2019-03-12T06:40:39.888Z,84.65
2019-03-12T06:41:39.930Z,84.80
2019-03-12T06:42:39.866Z,84.96
2019-03-12T06:43:39.896Z,84.17
2019-03-12T06:44:39.905Z,84.96
2019-03-12T06:45:39.836Z,85.38
2019-03-12T06:46:39.821Z,84.34
2019-03-12T06:47:39.811Z,84.65
2019-03-12T06:48:39.798Z,84.75
2019-03-12T06:49:39.793Z,85.49
2019-03-12T06:50:39.789Z,84.75
2019-03-12T06:51:39.772Z,85.06
2019-03-12T06:52:39.759Z,84.23
2019-03-12T06:53:39.758Z,85.03
2019-03-12T06:54:39.757Z,84.51
2019-03-12T06:55:41.169Z,84.68
2019-03-12T06:56:39.709Z,84.09
2019-03-12T06:57:39.713Z,82.77
2019-03-12T06:58:39.694Z,82.32
2019-03-12T06:59:39.691Z,82.11
2019-03-12T07:00:39.691Z,81.73
2019-03-12T07:01:39.733Z,82.46
2019-03-12T07:02:39.645Z,83.74
2019-03-12T07:03:39.640Z,84.05
2019-03-12T07:04:39.631Z,84.05
2019-03-12T07:05:39.615Z,84.58
2019-03-12T07:06:39.616Z,84.37
2019-03-12T07:07:41.784Z,84.27
2019-03-12T07:08:40.584Z,84.72
2019-03-12T07:09:39.569Z,85.13
2019-03-12T07:10:39.645Z,84.92
2019-03-12T07:11:39.557Z,85.38
2019-03-12T07:12:39.536Z,85.28
2019-03-12T07:13:39.525Z,85.55
2019-03-12T07:14:39.528Z,86.27
2019-03-12T07:15:39.509Z,86.07
2019-03-12T07:16:39.498Z,85.24
2019-03-12T07:17:39.481Z,85.86
2019-03-12T07:18:39.483Z,86.07
2019-03-12T07:19:39.465Z,86.24
2019-03-12T07:20:39.475Z,86.24
2019-03-12T07:21:39.444Z,85.57
2019-03-12T07:22:39.452Z,85.41
2019-03-12T07:23:39.432Z,84.64
2019-03-12T07:24:39.410Z,84.33
2019-03-12T07:25:39.393Z,84.22
2019-03-12T07:26:39.388Z,84.53
2019-03-12T07:27:39.380Z,84.33
2019-03-12T07:28:49.745Z,84.60
2019-03-12T07:29:40.349Z,84.25
2019-03-12T07:30:39.342Z,83.34
2019-03-12T07:31:39.336Z,82.41
2019-03-12T07:32:39.319Z,84.11
2019-03-12T07:33:39.313Z,83.63
2019-03-12T07:34:39.313Z,84.08
2019-03-12T07:35:39.286Z,85.64
2019-03-12T07:36:39.274Z,85.26
2019-03-12T07:37:39.274Z,86.30
2019-03-12T07:38:39.259Z,86.57
2019-03-12T07:39:39.265Z,86.36
2019-03-12T07:40:39.237Z,86.22
2019-03-12T07:41:39.227Z,85.04
2019-03-12T07:42:39.220Z,83.86
2019-03-12T07:43:39.205Z,81.26
2019-03-12T07:44:39.245Z,80.16
2019-03-12T07:45:42.075Z,81.13
2019-03-12T07:46:39.166Z,82.23
2019-03-12T07:47:41.848Z,81.47
2019-03-12T07:48:39.146Z,79.67
2019-03-12T07:49:39.142Z,77.67
2019-03-12T07:50:39.133Z,77.15
2019-03-12T07:51:39.126Z,77.12
2019-03-12T07:52:39.107Z,77.67
2019-03-12T07:53:39.104Z,75.77
2019-03-12T07:54:39.084Z,74.57
2019-03-12T07:55:39.099Z,75.05
2019-03-12T07:56:39.077Z,76.36
2019-03-12T07:57:39.059Z,77.22
2019-03-12T07:58:39.035Z,76.91
2019-03-12T07:59:39.030Z,78.12
2019-03-12T08:00:39.019Z,79.54
2019-03-12T08:01:39.018Z,81.44
2019-03-12T08:02:39.002Z,81.82
2019-03-12T08:03:38.980Z,82.60
2019-03-12T08:04:38.975Z,81.37
2019-03-12T08:05:38.960Z,79.50
2019-03-12T08:06:38.983Z,81.57
2019-03-12T08:07:38.957Z,81.57
2019-03-12T08:08:38.936Z,81.54
2019-03-12T08:09:38.920Z,80.12
2019-03-12T08:10:38.913Z,81.26
2019-03-12T08:11:38.903Z,81.47
2019-03-12T08:12:38.884Z,81.61
2019-03-12T08:13:38.877Z,81.34
2019-03-12T08:14:38.866Z,82.93
2019-03-12T08:15:38.851Z,84.17
2019-03-12T08:16:38.913Z,83.76
2019-03-12T08:17:38.832Z,85.11
2019-03-12T08:18:38.820Z,83.62
2019-03-12T08:19:38.807Z,82.89
2019-03-12T08:20:38.799Z,82.58
2019-03-12T08:21:38.787Z,82.79
2019-03-12T08:22:38.785Z,82.44
2019-03-12T08:23:38.768Z,82.23
2019-03-12T08:24:38.747Z,82.09
2019-03-12T08:25:38.822Z,82.60
2019-03-12T08:26:38.731Z,81.88
2019-03-12T08:27:38.733Z,81.40
2019-03-12T08:28:38.703Z,81.30
2019-03-12T08:29:38.693Z,82.86
2019-03-12T08:30:38.685Z,83.00
2019-03-12T08:31:38.676Z,83.68
2019-03-12T08:32:38.702Z,83.06
2019-03-12T08:33:49.914Z,83.64
2019-03-12T08:34:39.640Z,82.65
2019-03-12T08:35:38.630Z,82.54
2019-03-12T08:36:38.615Z,83.95
2019-03-12T08:37:38.612Z,82.19
2019-03-12T08:38:38.604Z,82.50
2019-03-12T08:39:38.583Z,81.84
2019-03-12T08:40:51.678Z,81.57
2019-03-12T08:41:39.563Z,81.54
2019-03-12T08:42:38.554Z,80.26
2019-03-12T08:43:38.552Z,79.53
2019-03-12T08:44:41.289Z,80.19
2019-03-12T08:45:38.520Z,79.47
2019-03-12T08:46:38.513Z,81.54
2019-03-12T08:47:38.501Z,79.88
2019-03-12T08:48:38.503Z,79.47
2019-03-12T08:49:38.477Z,80.60
2019-03-12T08:50:38.466Z,79.91
2019-03-12T08:51:38.469Z,79.98
2019-03-12T08:52:38.445Z,81.12
2019-03-12T08:53:38.428Z,81.54
2019-03-12T08:54:38.421Z,81.54
2019-03-12T08:55:38.411Z,82.15
2019-03-12T08:56:38.406Z,83.81
2019-03-12T08:57:38.385Z,81.54
2019-03-12T08:58:38.377Z,81.54
2019-03-12T08:59:38.364Z,82.26
2019-03-12T09:00:38.353Z,83.29
2019-03-12T09:01:38.353Z,81.95
2019-03-12T09:02:38.338Z,82.26
2019-03-12T09:03:38.357Z,82.98
2019-03-12T09:04:38.313Z,83.54
2019-03-12T09:05:38.304Z,81.37
2019-03-12T09:06:38.291Z,81.05
2019-03-12T09:07:38.279Z,82.81
2019-03-12T09:08:38.281Z,83.12
2019-03-12T09:09:38.288Z,83.02
2019-03-12T09:10:38.241Z,80.78
2019-03-12T09:11:38.231Z,83.54
2019-03-12T09:12:38.220Z,82.81
2019-03-12T09:13:38.220Z,82.23
2019-03-12T09:14:38.299Z,82.23
2019-03-12T09:15:38.195Z,82.06
2019-03-12T09:16:38.176Z,82.48
2019-03-12T09:17:38.171Z,83.51
2019-03-12T09:18:38.161Z,83.62
2019-03-12T09:19:38.169Z,84.55
2019-03-12T09:20:38.240Z,85.48
2019-03-12T09:21:38.138Z,84.13
2019-03-12T09:22:38.118Z,84.96
2019-03-12T09:23:38.108Z,86.41
2019-03-12T09:24:38.094Z,86.31
2019-03-12T09:25:38.092Z,86.31
2019-03-12T09:26:38.074Z,86.58
2019-03-12T09:27:38.079Z,87.24
2019-03-12T09:28:38.047Z,86.93
2019-03-12T09:29:38.036Z,87.51
2019-03-12T09:30:39.714Z,85.86
2019-03-12T09:31:38.034Z,84.20
2019-03-12T09:32:38.010Z,84.09
2019-03-12T09:33:38.007Z,84.68
2019-03-12T09:34:37.987Z,85.68
2019-03-12T09:35:37.978Z,84.53
2019-03-12T09:36:38.007Z,83.87
2019-03-12T09:37:37.951Z,84.19
2019-03-12T09:38:37.939Z,83.84
2019-03-12T09:39:37.930Z,81.67
2019-03-12T09:40:37.918Z,83.42
2019-03-12T09:41:37.911Z,81.87
2019-03-12T09:42:37.906Z,82.70
2019-03-12T09:43:37.885Z,80.57
2019-03-12T09:44:37.880Z,81.49
2019-03-12T09:45:37.864Z,79.80
2019-03-12T09:46:37.858Z,78.56
2019-03-12T09:47:37.853Z,78.25
2019-03-12T09:48:37.841Z,76.87
2019-03-12T09:49:37.823Z,78.08
2019-03-12T09:50:37.815Z,77.36
2019-03-12T09:51:37.800Z,75.98
2019-03-12T09:52:37.796Z,75.43
2019-03-12T09:53:37.817Z,74.05
2019-03-12T09:54:37.781Z,72.85
2019-03-12T09:55:37.756Z,73.12
2019-03-12T09:56:37.745Z,73.02
2019-03-12T09:57:37.729Z,73.33
2019-03-12T09:58:37.718Z,73.71
2019-03-12T09:59:37.721Z,71.64
2019-03-12T10:00:37.699Z,72.88
2019-03-12T10:01:37.691Z,72.99
2019-03-12T10:02:37.679Z,69.27
2019-03-12T10:03:37.663Z,70.65
2019-03-12T10:04:37.731Z,71.78
2019-03-12T10:05:37.645Z,73.05
2019-03-12T10:06:37.629Z,71.20
2019-03-12T10:07:40.033Z,73.05
2019-03-12T10:08:37.618Z,71.44
2019-03-12T10:09:37.608Z,74.57
2019-03-12T10:10:37.585Z,71.14
2019-03-12T10:11:37.573Z,72.03
2019-03-12T10:12:37.565Z,66.50
2019-03-12T10:13:37.558Z,67.12
2019-03-12T10:14:37.557Z,67.05
2019-03-12T10:15:37.539Z,68.39
2019-03-12T10:16:37.526Z,68.11
2019-03-12T10:17:37.509Z,68.42
2019-03-12T10:18:37.510Z,68.45
2019-03-12T10:19:37.513Z,69.38
2019-03-12T10:20:37.481Z,68.42
2019-03-12T10:21:37.468Z,69.24
2019-03-12T10:22:37.453Z,69.01
2019-03-12T10:23:37.449Z,68.21
2019-03-12T10:24:37.431Z,68.59
2019-03-12T10:25:37.434Z,69.62
2019-03-12T10:26:37.411Z,67.02
2019-03-12T10:27:37.410Z,68.15
2019-03-12T10:28:37.388Z,65.75
2019-03-12T10:29:37.391Z,62.79
2019-03-12T10:30:37.744Z,63.31
2019-03-12T10:31:37.364Z,65.78
2019-03-12T10:32:37.350Z,64.96
2019-03-12T10:33:37.333Z,64.44
2019-03-12T10:34:37.326Z,64.68
2019-03-12T10:35:37.317Z,66.53
2019-03-12T10:36:37.314Z,66.25
2019-03-12T10:37:37.296Z,67.08
2019-03-12T10:38:37.369Z,65.92
2019-03-12T10:39:37.279Z,67.63
2019-03-12T10:40:37.257Z,65.47
2019-03-12T10:41:37.282Z,63.82
2019-03-12T10:42:37.238Z,64.75
2019-03-12T10:43:37.227Z,64.03
2019-03-12T10:44:37.216Z,63.03
2019-03-12T10:45:37.198Z,65.22
2019-03-12T10:46:37.189Z,67.25
2019-03-12T10:47:37.187Z,66.22
2019-03-12T10:48:37.166Z,65.81
2019-03-12T10:49:37.923Z,64.06
2019-03-12T10:50:37.145Z,63.34
2019-03-12T10:51:37.134Z,65.26
2019-03-12T10:52:37.133Z,64.83
2019-03-12T10:53:37.123Z,61.61
2019-03-12T10:54:37.130Z,60.40
2019-03-12T10:55:37.088Z,62.63
2019-03-12T10:56:37.076Z,63.60
2019-03-12T10:57:37.130Z,60.73
2019-03-12T10:58:37.092Z,59.83
2019-03-12T10:59:37.044Z,60.30
2019-03-12T11:00:37.041Z,61.02
2019-03-12T11:01:37.023Z,61.07
2019-03-12T11:02:37.025Z,61.80
2019-03-12T11:03:37.002Z,61.90
2019-03-12T11:04:36.996Z,61.90
2019-03-12T11:05:45.790Z,60.94
2019-03-12T11:06:37.968Z,61.43
2019-03-12T11:07:36.966Z,60.43
2019-03-12T11:08:36.948Z,61.66
2019-03-12T11:09:36.947Z,61.74
2019-03-12T11:10:36.934Z,61.27
2019-03-12T11:11:36.919Z,60.35
2019-03-12T11:12:36.915Z,59.80
2019-03-12T11:13:36.893Z,59.36
2019-03-12T11:14:36.887Z,60.88
2019-03-12T11:15:36.870Z,58.67
2019-03-12T11:16:36.861Z,56.10
2019-03-12T11:17:48.706Z,55.87
2019-03-12T11:18:37.845Z,53.03
2019-03-12T11:19:36.831Z,55.82
2019-03-12T11:20:36.828Z,54.90
2019-03-12T11:21:36.807Z,55.23
2019-03-12T11:22:36.796Z,55.23
2019-03-12T11:23:36.796Z,55.46
2019-03-12T11:24:36.789Z,56.21
2019-03-12T11:25:36.764Z,55.21
2019-03-12T11:26:36.754Z,53.45
2019-03-12T11:27:36.737Z,54.66
2019-03-12T11:28:36.755Z,55.30
2019-03-12T11:29:36.717Z,55.02
2019-03-12T11:30:36.704Z,56.00
2019-03-12T11:31:36.703Z,56.21
2019-03-12T11:32:36.688Z,57.54
2019-03-12T11:33:36.677Z,56.72
2019-03-12T11:34:38.569Z,56.77
2019-03-12T11:35:39.266Z,56.08
2019-03-12T11:36:36.644Z,54.46
2019-03-12T11:37:36.656Z,56.02
2019-03-12T11:38:36.622Z,54.66
2019-03-12T11:39:36.684Z,55.02
2019-03-12T11:40:36.600Z,56.13
2019-03-12T11:41:36.606Z,53.12
2019-03-12T11:42:36.581Z,54.66
2019-03-12T11:43:36.570Z,55.38
2019-03-12T11:44:36.554Z,51.48
2019-03-12T11:45:38.027Z,52.84
2019-03-12T11:46:42.905Z,53.30
2019-03-12T11:47:37.526Z,52.81
2019-03-12T11:48:36.546Z,52.94
2019-03-12T11:49:36.499Z,53.43
2019-03-12T11:50:36.502Z,53.89
2019-03-12T11:51:36.494Z,54.00
2019-03-12T11:52:36.473Z,52.15
2019-03-12T11:53:36.472Z,50.90
2019-03-12T11:54:36.449Z,52.02
2019-03-12T11:55:36.465Z,51.12
2019-03-12T11:56:36.445Z,52.74
2019-03-12T11:57:36.418Z,52.56
2019-03-12T11:58:36.412Z,52.44
2019-03-12T11:59:36.393Z,51.07
2019-03-12T12:00:36.381Z,53.05
2019-03-12T12:01:36.386Z,52.72
2019-03-12T12:02:36.357Z,53.23
2019-03-12T12:03:36.384Z,51.59
2019-03-12T12:04:36.342Z,52.00
2019-03-12T12:05:36.351Z,50.90
2019-03-12T12:06:36.345Z,50.18
2019-03-12T12:07:36.353Z,51.28
2019-03-12T12:08:36.299Z,50.13
2019-03-12T12:09:36.283Z,49.08
2019-03-12T12:10:36.285Z,50.26
2019-03-12T12:11:36.270Z,48.60
2019-03-12T12:12:36.248Z,48.93
2019-03-12T12:13:36.236Z,49.75
2019-03-12T12:14:36.233Z,50.04
2019-03-12T12:15:36.230Z,46.33
2019-03-12T12:16:36.227Z,45.12
2019-03-12T12:17:36.193Z,45.65
2019-03-12T12:18:36.183Z,45.45
2019-03-12T12:19:36.174Z,46.99
2019-03-12T12:20:36.171Z,45.89
2019-03-12T12:21:36.162Z,46.72
2019-03-12T12:22:36.175Z,46.97
2019-03-12T12:23:36.132Z,47.18
2019-03-12T12:24:36.116Z,48.59
2019-03-12T12:25:36.111Z,48.59
2019-03-12T12:26:36.098Z,48.69
2019-03-12T12:27:36.087Z,49.67
2019-03-12T12:28:36.115Z,49.14
2019-03-12T12:29:36.061Z,49.14
2019-03-12T12:30:36.051Z,48.75
2019-03-12T12:31:36.042Z,48.77
2019-03-12T12:32:36.029Z,50.77
2019-03-12T12:33:36.022Z,50.67
2019-03-12T12:34:36.021Z,49.69
2019-03-12T12:35:36.001Z,48.24
2019-03-12T12:36:35.994Z,48.83
2019-03-12T12:37:35.981Z,48.55
2019-03-12T12:38:35.970Z,48.06
2019-03-12T12:39:35.960Z,48.14
2019-03-12T12:40:35.951Z,48.65
2019-03-12T12:41:35.932Z,48.60
2019-03-12T12:42:36.279Z,48.17
2019-03-12T12:43:35.921Z,45.26
2019-03-12T12:44:35.925Z,44.24
2019-03-12T12:45:35.901Z,45.90
2019-03-12T12:46:35.888Z,45.92
2019-03-12T12:47:35.863Z,45.82
2019-03-12T12:48:35.855Z,45.57
2019-03-12T12:49:35.856Z,46.81
2019-03-12T12:50:35.849Z,48.98
2019-03-12T12:51:35.823Z,47.75
2019-03-12T12:52:35.825Z,48.80